Time;durP1;ratioP1;P1;durP2;ratioP2;P2;SDS_P1;SDS_P2;PMS_P1;PMS_P2;Temp;Humidity;BMP_temperature;BMP_pressure;BME280_temperature;BME280_humidity;BME280_pressure;Samples;Min_cycle;Max_cycle;Signal;HPM_P1;HPM_P2
2022/03/29 00:02:43;;;;;;;25.80;12.10;;;6.60;99.90;;;;;;7241817;32;20250;-60
2022/03/29 00:06:44;;;;;;;22.87;12.02;;;6.60;99.90;;;;;;7241372;32;20215;-60
2022/03/29 00:10:46;;;;;;;32.47;13.90;;;6.60;99.90;;;;;;7241027;32;20105;-60
2022/03/29 00:14:48;;;;;;;27.08;13.80;;;6.50;99.90;;;;;;7245913;32;20227;-59
2022/03/29 00:18:50;;;;;;;26.58;13.57;;;6.50;99.90;;;;;;7245237;32;20607;-60
2022/03/29 00:22:51;;;;;;;25.65;12.18;;;6.50;99.90;;;;;;7244779;32;20134;-60
2022/03/29 00:26:53;;;;;;;24.00;12.55;;;6.50;99.90;;;;;;7229671;32;20798;-59
2022/03/29 00:30:55;;;;;;;26.10;12.52;;;6.40;99.90;;;;;;7243913;32;20256;-60
2022/03/29 00:34:57;;;;;;;23.10;12.23;;;6.40;99.90;;;;;;7242782;32;20116;-58
2022/03/29 00:38:59;;;;;;;23.85;12.15;;;6.40;99.90;;;;;;7241280;32;20135;-58
2022/03/29 00:43:00;;;;;;;24.55;12.15;;;6.40;99.90;;;;;;7241192;32;20253;-59
2022/03/29 00:47:03;;;;;;;26.62;11.27;;;6.40;99.90;;;;;;7231643;32;20109;-60
2022/03/29 00:51:06;;;;;;;24.37;12.27;;;6.40;99.90;;;;;;7241433;32;20112;-59
2022/03/29 00:55:12;;;;;;;22.67;12.07;;;6.30;99.90;;;;;;7241859;32;20192;-58
2022/03/29 00:59:14;;;;;;;21.52;11.07;;;6.30;99.90;;;;;;7234580;32;20222;-58
2022/03/29 01:03:16;;;;;;;26.02;12.50;;;6.30;99.90;;;;;;7237981;32;20130;-60
2022/03/29 01:07:18;;;;;;;26.35;11.88;;;6.30;99.90;;;;;;7233951;32;20239;-59
2022/03/29 01:11:19;;;;;;;29.02;12.50;;;6.30;99.90;;;;;;7235607;32;20332;-58
2022/03/29 01:15:31;;;;;;;28.12;12.65;;;6.30;99.90;;;;;;7235440;32;20247;-59
2022/03/29 01:19:35;;;;;;;28.33;12.65;;;6.20;99.90;;;;;;7235538;32;20575;-59
2022/03/29 01:23:37;;;;;;;34.13;13.25;;;6.20;99.90;;;;;;7235576;32;20810;-60
2022/03/29 01:27:40;;;;;;;28.27;12.32;;;6.20;99.90;;;;;;7235908;32;20275;-59
2022/03/29 01:31:42;;;;;;;22.37;12.27;;;6.30;99.90;;;;;;7239047;32;20591;-58
2022/03/29 01:35:46;;;;;;;24.08;12.55;;;6.20;99.90;;;;;;7239776;32;20341;-59
2022/03/29 01:39:48;;;;;;;29.42;12.77;;;6.20;99.90;;;;;;7236991;32;20166;-59
2022/03/29 01:43:49;;;;;;;25.30;12.90;;;6.30;99.90;;;;;;7235485;32;20264;-58
2022/03/29 01:47:52;;;;;;;35.00;13.65;;;6.30;99.90;;;;;;7231980;32;20477;-60
2022/03/29 01:51:56;;;;;;;24.90;13.40;;;6.30;99.90;;;;;;7235944;32;20139;-58
2022/03/29 01:55:59;;;;;;;29.15;14.18;;;6.40;99.90;;;;;;7238925;32;20117;-60
2022/03/29 02:04:22;;;;;;;26.00;12.48;;;6.40;99.90;;;;;;7233466;32;20139;-59
2022/03/29 02:08:24;;;;;;;25.80;13.18;;;6.50;99.90;;;;;;7240333;32;20520;-59
2022/03/29 02:12:25;;;;;;;24.60;12.13;;;6.50;99.90;;;;;;7242387;32;20113;-60
2022/03/29 02:16:28;;;;;;;24.48;12.60;;;6.40;99.90;;;;;;7241707;32;20268;-60
2022/03/29 02:20:30;;;;;;;23.05;11.55;;;6.40;99.90;;;;;;7241711;32;20132;-59
2022/03/29 02:24:32;;;;;;;26.42;12.82;;;6.40;99.90;;;;;;7242382;32;20206;-59
2022/03/29 02:28:34;;;;;;;26.83;13.40;;;6.50;99.90;;;;;;7246618;32;20498;-58
2022/03/29 02:32:36;;;;;;;27.87;14.10;;;6.40;99.90;;;;;;7235774;32;20615;-58
2022/03/29 02:36:37;;;;;;;22.90;12.32;;;6.40;99.90;;;;;;7245643;32;20218;-58
2022/03/29 02:40:39;;;;;;;29.42;13.15;;;6.40;99.90;;;;;;7244565;32;20227;-58
2022/03/29 02:44:41;;;;;;;27.52;13.20;;;6.40;99.90;;;;;;7245224;32;20388;-58
2022/03/29 02:48:42;;;;;;;24.08;13.20;;;6.40;99.90;;;;;;7241240;32;20127;-58
2022/03/29 02:52:47;;;;;;;24.23;13.77;;;6.40;99.90;;;;;;7243217;32;20543;-58
2022/03/29 02:56:49;;;;;;;27.55;14.13;;;6.30;99.90;;;;;;7242280;32;20147;-61
2022/03/29 03:00:52;;;;;;;25.60;13.43;;;6.40;99.90;;;;;;7234400;32;20219;-60
2022/03/29 03:04:53;;;;;;;25.73;14.38;;;6.40;99.90;;;;;;7235289;32;20207;-58
2022/03/29 03:08:55;;;;;;;24.70;13.60;;;6.50;99.90;;;;;;7236949;32;20163;-59
2022/03/29 03:12:57;;;;;;;24.37;13.93;;;6.40;99.90;;;;;;7240128;32;20452;-60
2022/03/29 03:16:59;;;;;;;28.27;13.35;;;6.40;99.90;;;;;;7237390;32;20505;-59
2022/03/29 03:21:16;;;;;;;23.12;12.55;;;6.40;99.90;;;;;;7238503;32;20108;-59
2022/03/29 03:25:17;;;;;;;27.35;12.48;;;6.40;99.90;;;;;;7238645;32;20749;-59
2022/03/29 03:29:19;;;;;;;22.92;12.32;;;6.40;99.90;;;;;;7242523;32;20326;-59
2022/03/29 03:33:21;;;;;;;25.12;12.73;;;6.50;99.90;;;;;;7239832;32;20473;-58
2022/03/29 03:37:23;;;;;;;28.33;14.07;;;6.40;99.90;;;;;;7238361;32;20195;-59
2022/03/29 03:41:25;;;;;;;31.98;16.42;;;6.40;99.90;;;;;;7239765;32;20171;-59
2022/03/29 03:45:26;;;;;;;38.25;18.23;;;6.60;99.90;;;;;;7237970;32;20511;-59
2022/03/29 03:49:28;;;;;;;30.70;17.33;;;6.60;99.90;;;;;;7236633;32;20126;-58
2022/03/29 03:53:30;;;;;;;34.17;19.10;;;6.70;99.90;;;;;;7236008;32;20116;-58
2022/03/29 03:57:32;;;;;;;33.63;19.58;;;6.80;99.90;;;;;;7236006;32;20272;-59
2022/03/29 04:01:34;;;;;;;34.25;19.85;;;6.90;99.90;;;;;;7237545;32;20100;-59
2022/03/29 04:05:37;;;;;;;37.40;20.60;;;7.00;99.90;;;;;;7237429;32;20306;-58
2022/03/29 04:09:39;;;;;;;38.05;22.42;;;7.00;99.90;;;;;;7236886;32;20124;-58
2022/03/29 04:13:40;;;;;;;40.05;21.20;;;7.10;99.90;;;;;;7234205;32;20119;-58
2022/03/29 04:17:42;;;;;;;40.60;20.70;;;7.10;99.90;;;;;;7239968;32;20639;-59
2022/03/29 04:21:44;;;;;;;41.13;22.67;;;7.20;99.90;;;;;;7241248;32;20107;-59
2022/03/29 04:25:45;;;;;;;36.67;21.83;;;7.30;99.90;;;;;;7238966;32;20490;-58
2022/03/29 04:29:47;;;;;;;41.08;23.25;;;7.30;99.90;;;;;;7243671;32;20147;-59
2022/03/29 04:33:49;;;;;;;42.47;22.83;;;7.30;99.90;;;;;;7239413;32;20559;-60
2022/03/29 04:37:50;;;;;;;37.13;21.00;;;7.30;99.90;;;;;;7237396;32;20127;-59
2022/03/29 04:41:52;;;;;;;38.30;22.60;;;7.30;99.90;;;;;;7241855;32;20504;-60
2022/03/29 04:46:09;;;;;;;38.97;21.62;;;7.40;99.90;;;;;;7240864;32;20115;-60
2022/03/29 04:50:13;;;;;;;36.45;20.83;;;7.40;99.90;;;;;;7246417;32;20138;-59
2022/03/29 04:54:15;;;;;;;35.60;21.98;;;7.30;99.90;;;;;;7239156;32;20220;-58
2022/03/29 04:58:17;;;;;;;42.35;23.90;;;7.30;99.90;;;;;;7242221;32;21912;-60
2022/03/29 05:02:19;;;;;;;40.95;22.90;;;7.30;99.90;;;;;;7238887;32;20119;-58
2022/03/29 05:06:20;;;;;;;45.47;24.25;;;7.30;99.90;;;;;;7239271;32;20516;-58
2022/03/29 05:10:22;;;;;;;44.60;24.37;;;7.20;99.90;;;;;;7238700;32;20536;-60
2022/03/29 05:14:24;;;;;;;38.67;22.70;;;7.30;99.90;;;;;;7241240;32;20123;-58
2022/03/29 05:18:26;;;;;;;37.95;22.42;;;7.20;99.90;;;;;;7241319;32;20235;-59
2022/03/29 05:22:28;;;;;;;41.53;24.85;;;7.20;99.90;;;;;;7238031;32;20226;-59
2022/03/29 05:26:29;;;;;;;41.80;23.05;;;7.10;99.90;;;;;;7241845;32;20100;-60
2022/03/29 05:30:31;;;;;;;39.88;24.00;;;7.10;99.90;;;;;;7241062;32;20199;-59
2022/03/29 05:34:33;;;;;;;40.50;24.92;;;7.10;99.90;;;;;;7239291;32;20243;-61
2022/03/29 05:38:35;;;;;;;44.95;24.40;;;7.10;99.90;;;;;;7239326;32;20437;-60
2022/03/29 05:42:37;;;;;;;44.35;24.25;;;7.10;99.90;;;;;;7250546;32;20231;-60
2022/03/29 05:51:00;;;;;;;46.83;24.65;;;7.10;99.90;;;;;;7246337;32;20214;-60
2022/03/29 05:55:02;;;;;;;44.50;24.30;;;7.10;99.90;;;;;;7245709;32;20196;-61
2022/03/29 05:59:04;;;;;;;40.25;24.83;;;7.10;99.90;;;;;;7243524;32;20100;-59
2022/03/29 06:03:05;;;;;;;50.63;29.30;;;7.20;99.90;;;;;;7230342;32;20215;-61
2022/03/29 06:07:10;;;;;;;47.58;23.98;;;7.20;99.90;;;;;;7235006;32;20762;-62
2022/03/29 06:11:13;;;;;;;40.70;24.50;;;7.20;99.90;;;;;;7248863;32;20100;-60
2022/03/29 06:15:15;;;;;;;49.10;25.75;;;7.20;99.90;;;;;;7247846;32;20126;-61
2022/03/29 06:19:18;;;;;;;41.53;25.02;;;7.20;99.90;;;;;;7236383;32;20202;-61
2022/03/29 06:23:21;;;;;;;43.67;26.35;;;7.20;99.90;;;;;;7247000;32;20530;-61
2022/03/29 06:27:23;;;;;;;41.92;24.58;;;7.30;99.90;;;;;;7244228;32;20211;-61
2022/03/29 06:31:25;;;;;;;43.85;25.48;;;7.40;99.90;;;;;;7247210;32;20568;-60
2022/03/29 06:35:28;;;;;;;42.22;25.17;;;7.50;99.90;;;;;;7244576;32;20200;-60
2022/03/29 06:39:30;;;;;;;43.87;26.48;;;7.60;99.90;;;;;;7244943;32;20678;-59
2022/03/29 06:43:35;;;;;;;44.05;26.55;;;7.80;99.90;;;;;;7244471;32;20211;-60
2022/03/29 06:47:37;;;;;;;43.13;25.80;;;7.80;99.90;;;;;;7244625;32;20663;-60
2022/03/29 06:51:40;;;;;;;48.47;26.30;;;7.80;99.90;;;;;;7239986;32;20497;-60
2022/03/29 06:55:41;;;;;;;41.88;27.60;;;7.80;99.90;;;;;;7244884;32;20139;-59
2022/03/29 06:59:43;;;;;;;46.72;28.08;;;7.90;99.90;;;;;;7242808;32;20336;-59
2022/03/29 07:03:48;;;;;;;49.03;27.80;;;7.90;99.90;;;;;;7235267;32;20395;-60
2022/03/29 07:07:50;;;;;;;45.60;28.60;;;7.90;99.90;;;;;;7244362;32;20112;-61
2022/03/29 07:11:52;;;;;;;44.50;28.10;;;8.00;99.90;;;;;;7240563;32;20144;-61
2022/03/29 07:15:53;;;;;;;48.15;28.17;;;8.10;99.90;;;;;;7243295;32;20323;-59
2022/03/29 07:19:55;;;;;;;40.88;26.65;;;8.20;99.90;;;;;;7241513;32;20108;-59
2022/03/29 07:23:57;;;;;;;45.58;28.38;;;8.30;99.90;;;;;;7240165;32;20109;-60
2022/03/29 07:27:59;;;;;;;45.20;28.58;;;8.50;99.90;;;;;;7243559;32;20224;-60
2022/03/29 07:32:01;;;;;;;45.05;28.73;;;8.60;99.90;;;;;;7242014;32;20204;-62
2022/03/29 07:36:03;;;;;;;47.30;29.33;;;8.70;99.90;;;;;;7240732;32;20122;-61
2022/03/29 07:40:05;;;;;;;46.33;30.00;;;8.80;99.90;;;;;;7237578;32;20238;-61
2022/03/29 07:44:08;;;;;;;43.53;28.42;;;8.80;99.90;;;;;;7237360;32;20123;-60
2022/03/29 07:48:10;;;;;;;44.13;28.10;;;8.90;99.90;;;;;;7240160;32;20127;-59
2022/03/29 07:52:33;;;;;;;46.72;27.85;;;9.00;99.90;;;;;;7242517;32;20119;-59
2022/03/29 07:56:34;;;;;;;42.47;27.23;;;9.10;99.90;;;;;;7242831;32;20104;-61
2022/03/29 08:00:36;;;;;;;43.55;28.48;;;9.40;99.90;;;;;;7236674;32;20127;-60
2022/03/29 08:04:38;;;;;;;44.40;29.23;;;9.70;99.90;;;;;;7242537;32;20183;-59
2022/03/29 08:08:41;;;;;;;44.33;27.23;;;9.70;99.90;;;;;;7240018;32;20100;-60
2022/03/29 08:12:44;;;;;;;42.62;28.48;;;9.80;99.90;;;;;;7239575;32;20125;-60
2022/03/29 08:16:46;;;;;;;41.45;27.65;;;9.90;99.90;;;;;;7240330;32;20120;-60
2022/03/29 08:20:48;;;;;;;44.13;28.98;;;10.00;99.90;;;;;;7239546;32;20267;-60
2022/03/29 08:24:50;;;;;;;47.83;31.20;;;10.10;99.90;;;;;;7242609;32;20431;-59
2022/03/29 08:28:52;;;;;;;47.80;29.90;;;10.20;99.90;;;;;;7231706;32;20155;-62
2022/03/29 08:32:54;;;;;;;43.83;30.08;;;10.10;99.90;;;;;;7242174;32;20659;-61
2022/03/29 08:37:03;;;;;;;66.72;34.72;;;10.10;99.90;;;;;;7238881;32;20123;-61
2022/03/29 08:41:05;;;;;;;46.85;31.75;;;10.00;99.90;;;;;;7242238;32;20115;-62
2022/03/29 08:45:09;;;;;;;48.03;31.40;;;10.00;99.90;;;;;;7242143;32;20266;-61
2022/03/29 08:49:13;;;;;;;47.80;31.27;;;10.10;99.90;;;;;;7241750;32;20109;-61
2022/03/29 08:53:17;;;;;;;44.90;31.12;;;10.30;99.90;;;;;;7242550;32;20236;-61
2022/03/29 08:57:20;;;;;;;50.28;32.08;;;10.10;99.90;;;;;;7241923;32;20441;-61
2022/03/29 09:01:23;;;;;;;53.35;32.58;;;10.10;99.90;;;;;;7238826;32;20123;-65
2022/03/29 09:05:30;;;;;;;55.40;35.63;;;9.90;99.90;;;;;;7239374;32;20101;-60
2022/03/29 09:09:33;;;;;;;54.60;35.13;;;9.80;99.90;;;;;;7239033;32;20521;-61
2022/03/29 09:13:35;;;;;;;57.97;35.80;;;9.80;99.90;;;;;;7242740;32;20453;-60
2022/03/29 09:17:42;;;;;;;56.67;36.70;;;9.80;99.90;;;;;;7236524;32;20134;-62
2022/03/29 09:21:45;;;;;;;58.22;38.17;;;9.70;99.90;;;;;;7239739;32;20456;-60
2022/03/29 09:25:47;;;;;;;61.92;39.72;;;9.60;99.90;;;;;;7241777;32;20747;-62
2022/03/29 09:30:10;;;;;;;59.95;36.13;;;9.60;99.90;;;;;;7243741;32;20439;-62
2022/03/29 09:34:20;;;;;;;57.70;37.10;;;9.60;99.90;;;;;;7243638;32;20135;-61
2022/03/29 09:38:36;;;;;;;66.55;39.55;;;9.50;99.90;;;;;;7240604;32;20393;-58
2022/03/29 09:42:40;;;;;;;69.37;40.40;;;9.60;99.90;;;;;;7242511;32;20105;-61
2022/03/29 09:47:00;;;;;;;68.37;38.95;;;9.70;99.90;;;;;;7238278;32;20124;-60
2022/03/29 09:51:08;;;;;;;66.35;38.83;;;9.80;99.90;;;;;;7237354;32;20306;-61
2022/03/29 09:55:15;;;;;;;;;;;9.90;99.90;;;;;;7238539;32;20532;-61
2022/03/29 09:59:18;;;;;;;71.10;39.88;;;10.00;99.90;;;;;;7240842;32;20071;-61
2022/03/29 10:03:23;;;;;;;63.00;38.63;;;10.20;99.90;;;;;;7238704;32;20152;-61
2022/03/29 10:07:34;;;;;;;64.40;38.83;;;10.40;99.90;;;;;;7238628;32;20477;-60
2022/03/29 10:11:36;;;;;;;64.43;37.80;;;10.60;99.90;;;;;;7234495;32;20231;-60
2022/03/29 10:15:40;;;;;;;68.40;39.13;;;10.70;99.90;;;;;;7237682;32;20207;-63
2022/03/29 10:19:47;;;;;;;63.40;39.75;;;10.50;99.90;;;;;;7239021;32;20184;-61
2022/03/29 10:23:49;;;;;;;67.90;39.13;;;10.80;99.90;;;;;;7235581;32;20735;-60
2022/03/29 10:27:51;;;;;;;58.45;37.63;;;10.90;99.90;;;;;;7238113;32;20101;-60
2022/03/29 10:31:54;;;;;;;60.80;38.35;;;11.10;99.90;;;;;;7237681;32;20123;-60
2022/03/29 10:35:59;;;;;;;63.87;39.58;;;11.20;99.90;;;;;;7240498;32;20488;-62
2022/03/29 10:40:05;;;;;;;66.35;40.88;;;11.10;99.90;;;;;;7240748;32;20112;-60
2022/03/29 10:44:14;;;;;;;72.60;44.38;;;11.20;99.90;;;;;;7239748;32;20135;-63
2022/03/29 10:48:17;;;;;;;73.65;45.33;;;11.30;99.90;;;;;;7238324;32;20207;-60
2022/03/29 10:52:22;;;;;;;78.03;45.03;;;11.70;99.90;;;;;;7239946;32;20211;-61
2022/03/29 10:56:25;;;;;;;81.57;45.83;;;11.50;99.90;;;;;;7239912;32;20156;-60
2022/03/29 11:00:31;;;;;;;77.65;45.40;;;11.50;99.90;;;;;;7241184;32;20755;-61
2022/03/29 11:04:33;;;;;;;77.47;46.33;;;11.30;99.90;;;;;;7244088;32;20372;-61
2022/03/29 11:08:45;;;;;;;77.32;46.83;;;11.10;99.90;;;;;;7237688;32;20123;-61
2022/03/29 11:12:56;;;;;;;76.65;43.90;;;11.00;99.90;;;;;;7241908;32;20421;-61
2022/03/29 11:17:09;;;;;;;66.97;42.03;;;11.10;99.90;;;;;;7241931;32;20234;-61
2022/03/29 11:21:28;;;;;;;66.82;41.90;;;11.20;99.90;;;;;;7234966;32;20160;-61
2022/03/29 11:25:39;;;;;;;60.65;40.40;;;11.50;99.90;;;;;;7237414;32;20175;-61
2022/03/29 11:29:40;;;;;;;68.00;41.75;;;11.90;99.90;;;;;;7241251;32;20103;-60
2022/03/29 11:33:45;;;;;;;61.05;39.65;;;12.10;99.90;;;;;;7243590;32;20109;-60
2022/03/29 11:37:49;;;;;;;57.70;39.38;;;11.90;99.90;;;;;;7244986;32;20215;-60
2022/03/29 11:41:53;;;;;;;64.85;39.92;;;11.80;99.90;;;;;;7239116;32;20123;-62
2022/03/29 11:45:56;;;;;;;71.72;41.58;;;12.20;99.90;;;;;;7243708;32;20187;-64
2022/03/29 11:49:58;;;;;;;74.62;43.72;;;12.80;99.90;;;;;;7241977;32;20135;-61
2022/03/29 11:53:59;;;;;;;77.45;43.67;;;12.50;99.90;;;;;;7241829;32;20105;-59
2022/03/29 11:58:01;;;;;;;82.03;45.85;;;12.40;99.90;;;;;;7243274;32;20100;-61
2022/03/29 12:02:05;;;;;;;85.95;47.58;;;12.10;99.90;;;;;;7240882;32;20101;-61
2022/03/29 12:06:16;;;;;;;83.78;45.58;;;11.90;99.90;;;;;;7244187;32;20184;-64
2022/03/29 12:10:28;;;;;;;82.47;47.00;;;12.00;99.90;;;;;;7240029;32;20188;-61
2022/03/29 12:14:31;;;;;;;89.05;46.95;;;11.90;99.90;;;;;;7238468;32;20289;-61
2022/03/29 12:18:42;;;;;;;88.62;47.35;;;11.70;99.90;;;;;;7244513;32;20188;-62
2022/03/29 12:22:43;;;;;;;88.65;48.17;;;11.60;99.90;;;;;;7240005;32;20135;-60
2022/03/29 12:26:50;;;;;;;86.72;45.85;;;11.60;99.90;;;;;;7240487;32;20184;-62
2022/03/29 12:30:54;;;;;;;82.90;44.47;;;11.50;99.90;;;;;;7238541;32;20195;-58
2022/03/29 12:35:03;;;;;;;80.72;44.15;;;11.50;99.90;;;;;;7243917;32;20104;-56
2022/03/29 12:39:07;;;;;;;87.07;47.20;;;11.60;99.90;;;;;;7242449;32;20184;-56
2022/03/29 12:43:09;;;;;;;88.55;46.97;;;11.40;99.90;;;;;;7232589;32;20464;-56
2022/03/29 12:47:17;;;;;;;98.53;50.22;;;11.60;99.90;;;;;;7238045;32;20294;-61
2022/03/29 12:51:30;;;;;;;96.05;47.47;;;11.70;99.90;;;;;;7238769;32;20109;-61
2022/03/29 12:55:32;;;;;;;102.50;49.55;;;11.70;99.90;;;;;;7241561;32;20135;-59
2022/03/29 12:59:48;;;;;;;95.75;48.00;;;11.30;99.90;;;;;;7230988;32;20995;-60
2022/03/29 13:03:49;;;;;;;97.55;48.83;;;11.30;99.90;;;;;;7239320;32;20790;-60
2022/03/29 13:07:54;;;;;;;102.50;50.33;;;11.50;99.90;;;;;;7240822;32;20279;-62
2022/03/29 13:12:12;;;;;;;103.20;50.22;;;11.60;99.90;;;;;;7242089;32;20203;-62
2022/03/29 13:16:22;;;;;;;95.18;47.58;;;11.80;99.90;;;;;;7233433;32;20108;-60
2022/03/29 13:20:24;;;;;;;97.40;46.88;;;12.20;99.90;;;;;;7240578;32;20659;-63
2022/03/29 13:24:38;;;;;;;88.60;44.85;;;12.50;99.90;;;;;;7239864;32;20180;-62
2022/03/29 13:28:41;;;;;;;95.38;46.55;;;12.70;99.90;;;;;;7234803;32;20093;-62
2022/03/29 13:32:43;;;;;;;90.62;44.95;;;12.60;99.90;;;;;;7238574;32;20163;-59
2022/03/29 13:36:44;;;;;;;80.03;40.05;;;12.60;99.90;;;;;;7239968;32;20127;-59
2022/03/29 13:40:48;;;;;;;73.20;40.17;;;12.70;99.90;;;;;;7239433;32;20104;-60
2022/03/29 13:44:49;;;;;;;71.15;38.35;;;12.70;99.90;;;;;;7239050;32;20476;-62
2022/03/29 13:48:51;;;;;;;71.40;37.33;;;12.80;99.90;;;;;;7238979;32;20153;-62
2022/03/29 13:52:53;;;;;;;69.10;36.35;;;12.90;99.90;;;;;;7239396;32;20171;-60
2022/03/29 13:56:55;;;;;;;68.93;38.08;;;13.10;99.90;;;;;;7243750;32;20096;-60
2022/03/29 14:00:59;;;;;;;70.00;37.90;;;13.30;99.90;;;;;;7239559;32;20100;-63
2022/03/29 14:05:01;;;;;;;64.57;36.15;;;13.10;99.90;;;;;;7241060;32;20112;-61
2022/03/29 14:09:04;;;;;;;70.62;36.75;;;12.50;99.90;;;;;;7244369;32;20101;-62
2022/03/29 14:13:08;;;;;;;61.78;32.65;;;12.50;99.90;;;;;;7240457;32;20105;-61
2022/03/29 14:17:10;;;;;;;57.53;32.92;;;12.60;99.90;;;;;;7240364;32;20725;-61
2022/03/29 14:21:12;;;;;;;54.97;31.37;;;12.70;99.90;;;;;;7240267;32;20294;-61
2022/03/29 14:25:16;;;;;;;56.03;30.58;;;13.00;99.90;;;;;;7244452;32;20175;-60
2022/03/29 14:29:17;;;;;;;54.15;32.13;;;13.30;99.90;;;;;;7243601;32;20139;-61
2022/03/29 14:33:41;;;;;;;48.05;28.75;;;13.20;99.90;;;;;;7240631;32;20211;-64
2022/03/29 14:37:43;;;;;;;48.67;28.17;;;13.20;99.90;;;;;;7238793;32;20134;-60
2022/03/29 14:41:45;;;;;;;46.28;25.90;;;12.80;99.90;;;;;;7241160;32;20352;-59
2022/03/29 14:45:48;;;;;;;44.60;26.02;;;12.90;99.90;;;;;;7245955;32;20109;-61
2022/03/29 14:49:50;;;;;;;39.95;25.05;;;12.60;99.90;;;;;;7238731;32;20097;-60
2022/03/29 14:53:52;;;;;;;36.28;22.48;;;12.40;99.90;;;;;;7241300;32;20159;-63
2022/03/29 14:57:59;;;;;;;;;;;12.20;99.90;;;;;;7242169;32;20564;-61
2022/03/29 15:02:01;;;;;;;36.33;21.23;;;11.90;99.90;;;;;;7240755;32;20008;-63
2022/03/29 15:06:03;;;;;;;30.33;20.08;;;12.00;99.90;;;;;;7241185;32;20100;-59
2022/03/29 15:10:05;;;;;;;35.20;19.95;;;12.10;99.90;;;;;;7243568;32;20456;-61
2022/03/29 15:14:07;;;;;;;32.42;20.15;;;12.10;99.90;;;;;;7239753;32;20727;-60
2022/03/29 15:18:09;;;;;;;30.25;20.33;;;12.10;99.90;;;;;;7243204;32;20123;-60
2022/03/29 15:22:11;;;;;;;29.58;19.50;;;12.20;99.90;;;;;;7244533;32;20203;-64
2022/03/29 15:26:13;;;;;;;31.08;19.10;;;12.30;99.90;;;;;;7251323;32;20155;-60
2022/03/29 15:30:15;;;;;;;29.50;18.85;;;12.20;99.90;;;;;;7244743;32;20200;-59
2022/03/29 15:34:30;;;;;;;25.80;17.90;;;12.10;99.90;;;;;;7245722;32;20154;-56
2022/03/29 15:38:32;;;;;;;27.40;17.05;;;12.10;99.90;;;;;;7245193;32;20570;-59
2022/03/29 15:42:36;;;;;;;27.35;17.70;;;12.20;99.90;;;;;;7243911;32;20101;-60
2022/03/29 15:46:37;;;;;;;25.52;17.90;;;12.20;99.90;;;;;;7244268;32;20665;-59
2022/03/29 15:50:40;;;;;;;25.83;17.55;;;12.10;99.90;;;;;;7246143;32;20144;-60
2022/03/29 15:54:42;;;;;;;26.58;18.20;;;12.10;99.90;;;;;;7246397;32;20123;-61
2022/03/29 15:58:43;;;;;;;22.15;16.02;;;12.00;99.90;;;;;;7250723;32;20693;-61
2022/03/29 16:02:51;;;;;;;30.02;17.90;;;12.10;99.90;;;;;;7246760;32;20171;-61
2022/03/29 16:06:53;;;;;;;24.12;17.55;;;11.90;99.90;;;;;;7245744;32;20140;-59
2022/03/29 16:10:55;;;;;;;30.17;18.40;;;12.00;99.90;;;;;;7252490;32;20184;-61
2022/03/29 16:14:57;;;;;;;27.73;19.30;;;11.90;99.90;;;;;;7245543;32;20108;-61
2022/03/29 16:18:58;;;;;;;27.85;18.48;;;11.80;99.90;;;;;;7245213;32;20123;-59
2022/03/29 16:23:00;;;;;;;26.42;17.52;;;11.60;99.90;;;;;;7244452;32;20540;-59
2022/03/29 16:27:02;;;;;;;31.02;19.77;;;11.60;99.90;;;;;;7241164;32;20123;-60
2022/03/29 16:31:04;;;;;;;32.65;19.23;;;11.60;99.90;;;;;;7239433;32;20147;-61
2022/03/29 16:35:07;;;;;;;29.67;19.25;;;11.50;99.90;;;;;;7242270;32;20278;-59
2022/03/29 16:39:09;;;;;;;30.92;19.62;;;11.50;99.90;;;;;;7240421;32;20180;-60
2022/03/29 16:43:18;;;;;;;33.03;20.58;;;11.40;99.90;;;;;;7236659;32;20674;-63
2022/03/29 16:47:20;;;;;;;36.08;22.30;;;11.30;99.90;;;;;;7241258;32;20508;-62
2022/03/29 16:51:22;;;;;;;28.12;18.87;;;11.30;99.90;;;;;;7244376;32;20143;-62
2022/03/29 16:55:24;;;;;;;30.50;19.98;;;11.30;99.90;;;;;;7242630;32;20112;-59
2022/03/29 16:59:38;;;;;;;35.88;19.50;;;11.30;99.90;;;;;;7240181;32;20090;-61
2022/03/29 17:03:42;;;;;;;27.85;19.10;;;11.20;99.90;;;;;;7239658;32;20230;-60
2022/03/29 17:07:44;;;;;;;28.65;19.80;;;11.10;99.90;;;;;;7239269;32;20194;-63
2022/03/29 17:11:46;;;;;;;29.60;19.27;;;11.10;99.90;;;;;;7240979;32;20576;-61
2022/03/29 17:15:48;;;;;;;30.40;19.37;;;11.00;99.90;;;;;;7242558;32;20123;-62
2022/03/29 17:19:50;;;;;;;31.00;20.37;;;11.00;99.90;;;;;;7248109;32;20599;-61
2022/03/29 17:23:52;;;;;;;29.30;19.55;;;11.00;99.90;;;;;;7240277;32;20124;-61
2022/03/29 17:27:55;;;;;;;33.78;19.75;;;11.00;99.90;;;;;;7239307;32;20244;-59
2022/03/29 17:31:57;;;;;;;32.38;21.40;;;10.90;99.90;;;;;;7247845;32;20250;-60
2022/03/29 17:35:59;;;;;;;33.40;21.00;;;10.80;99.90;;;;;;7245194;32;20136;-61
2022/03/29 17:40:00;;;;;;;35.47;21.45;;;10.80;99.90;;;;;;7241390;32;20140;-60
2022/03/29 17:44:04;;;;;;;34.08;20.85;;;10.70;99.90;;;;;;7241601;32;20659;-62
2022/03/29 17:48:06;;;;;;;38.72;21.33;;;10.70;99.90;;;;;;7238072;32;20218;-59
2022/03/29 17:52:08;;;;;;;38.30;20.85;;;10.60;99.90;;;;;;7241960;32;20104;-61
2022/03/29 17:56:10;;;;;;;32.65;21.12;;;10.50;99.90;;;;;;7224838;32;20143;-56
2022/03/29 18:00:15;;;;;;;32.58;20.83;;;10.50;99.90;;;;;;7231284;32;20124;-57
2022/03/29 18:04:16;;;;;;;33.47;21.45;;;10.50;99.90;;;;;;7232147;32;20227;-57
2022/03/29 18:08:18;;;;;;;33.38;21.30;;;10.40;99.90;;;;;;7234125;32;20154;-61
2022/03/29 18:12:21;;;;;;;32.83;21.55;;;10.30;99.90;;;;;;7232248;32;20123;-59
2022/03/29 18:16:22;;;;;;;35.00;21.87;;;10.30;99.90;;;;;;7240726;32;20127;-60
2022/03/29 18:20:25;;;;;;;36.72;22.50;;;10.30;99.90;;;;;;7236329;32;20266;-60
2022/03/29 18:24:26;;;;;;;43.70;23.38;;;10.20;99.90;;;;;;7240504;32;20311;-60
2022/03/29 18:28:28;;;;;;;39.08;23.70;;;10.10;99.90;;;;;;7240996;32;20855;-61
2022/03/29 18:32:30;;;;;;;33.72;22.85;;;10.00;99.90;;;;;;7240800;32;20122;-61
2022/03/29 18:36:32;;;;;;;38.40;23.80;;;9.90;99.90;;;;;;7240170;32;20792;-62
2022/03/29 18:40:33;;;;;;;37.00;23.52;;;9.90;99.90;;;;;;7243240;32;20119;-62
2022/03/29 18:44:35;;;;;;;34.90;21.77;;;9.90;99.90;;;;;;7245193;32;20238;-62
2022/03/29 18:48:37;;;;;;;38.97;23.48;;;9.80;99.90;;;;;;7238927;32;22266;-60
2022/03/29 18:52:39;;;;;;;36.47;22.52;;;9.80;99.90;;;;;;7238928;32;20866;-60
2022/03/29 18:56:42;;;;;;;39.05;23.60;;;9.80;99.90;;;;;;7243484;32;20176;-62
2022/03/29 19:00:44;;;;;;;40.42;23.92;;;9.70;99.90;;;;;;7245155;32;20151;-62
2022/03/29 19:04:46;;;;;;;36.83;23.15;;;9.70;99.90;;;;;;7246419;32;20191;-63
2022/03/29 19:08:48;;;;;;;37.15;23.27;;;9.70;99.90;;;;;;7243421;32;20109;-63
2022/03/29 19:12:51;;;;;;;35.72;22.48;;;9.70;99.90;;;;;;7244394;32;20096;-62
2022/03/29 19:16:52;;;;;;;39.25;23.27;;;9.70;99.90;;;;;;7249699;32;20100;-60
2022/03/29 19:20:55;;;;;;;43.50;24.65;;;9.70;99.90;;;;;;7254223;32;20185;-61
2022/03/29 19:24:57;;;;;;;41.08;24.77;;;9.70;99.90;;;;;;7248963;32;20280;-61
2022/03/29 19:28:59;;;;;;;40.42;24.95;;;9.70;99.90;;;;;;7246992;32;20109;-61
2022/03/29 19:33:04;;;;;;;38.03;24.10;;;9.60;99.90;;;;;;7244244;32;20112;-60
2022/03/29 19:37:06;;;;;;;40.60;24.10;;;9.60;99.90;;;;;;7246701;32;20119;-61
2022/03/29 19:41:08;;;;;;;43.70;24.33;;;9.50;99.90;;;;;;7245680;32;20250;-60
2022/03/29 19:45:11;;;;;;;39.92;24.65;;;9.50;99.90;;;;;;7247924;32;20392;-61
2022/03/29 19:49:13;;;;;;;44.80;25.85;;;9.40;99.90;;;;;;7248182;32;20100;-62
2022/03/29 19:53:14;;;;;;;39.42;24.58;;;9.30;99.90;;;;;;7248895;32;20218;-63
2022/03/29 19:57:16;;;;;;;41.40;24.98;;;9.30;99.90;;;;;;7245482;32;20168;-62
2022/03/29 20:01:19;;;;;;;42.03;26.62;;;9.30;99.90;;;;;;7245889;32;20214;-61
2022/03/29 20:05:21;;;;;;;44.60;24.87;;;9.20;99.90;;;;;;7249066;32;20186;-61
2022/03/29 20:09:23;;;;;;;38.42;25.40;;;9.30;99.90;;;;;;7240924;32;20489;-62
2022/03/29 20:13:25;;;;;;;38.42;24.20;;;9.30;99.90;;;;;;7250775;32;20135;-60
2022/03/29 20:17:27;;;;;;;39.85;24.90;;;9.30;99.90;;;;;;7245424;32;20614;-61
2022/03/29 20:21:28;;;;;;;40.15;24.37;;;9.40;99.90;;;;;;7245517;32;20111;-61
2022/03/29 20:25:30;;;;;;;38.50;23.58;;;9.40;99.90;;;;;;7245464;32;20120;-60
2022/03/29 20:29:32;;;;;;;43.90;25.52;;;9.40;99.90;;;;;;7245966;32;20285;-61
2022/03/29 20:33:34;;;;;;;42.95;24.98;;;9.30;99.90;;;;;;7242258;32;21143;-59
2022/03/29 20:37:35;;;;;;;39.33;25.08;;;9.30;99.90;;;;;;7242204;32;20289;-59
2022/03/29 20:41:37;;;;;;;41.95;24.90;;;9.20;99.90;;;;;;7242863;32;20722;-60
2022/03/29 20:45:39;;;;;;;42.95;23.35;;;9.30;99.90;;;;;;7245213;32;20191;-59
2022/03/29 20:49:41;;;;;;;40.10;24.33;;;9.20;99.90;;;;;;7245734;32;20223;-59
2022/03/29 20:53:44;;;;;;;38.35;24.63;;;9.20;99.90;;;;;;7237187;32;20543;-59